sensor_id;sensor_type;location;lat;lon;timestamp;P1;durP1;ratioP1;P2;durP2;ratioP2
72611;SDS011;60655;52.182;4.474;2023-12-04T00:01:22;19.98;;;6.90;;
72611;SDS011;60655;52.182;4.474;2023-12-04T00:03:23;17.38;;;7.10;;
72611;SDS011;60655;52.182;4.474;2023-12-04T00:05:24;19.88;;;6.65;;
72611;SDS011;60655;52.182;4.474;2023-12-04T00:07:24;17.30;;;6.45;;
72611;SDS011;60655;52.182;4.474;2023-12-04T00:09:25;17.88;;;6.95;;
72611;SDS011;60655;52.182;4.474;2023-12-04T00:11:27;19.20;;;6.45;;
72611;SDS011;60655;52.182;4.474;2023-12-04T00:13:28;15.95;;;6.60;;
72611;SDS011;60655;52.182;4.474;2023-12-04T00:15:29;21.02;;;7.35;;
72611;SDS011;60655;52.182;4.474;2023-12-04T00:17:30;17.20;;;6.68;;
72611;SDS011;60655;52.182;4.474;2023-12-04T00:19:31;19.58;;;7.38;;
72611;SDS011;60655;52.182;4.474;2023-12-04T00:21:32;18.15;;;6.85;;
72611;SDS011;60655;52.182;4.474;2023-12-04T00:23:33;19.67;;;7.15;;
72611;SDS011;60655;52.182;4.474;2023-12-04T00:25:34;17.65;;;6.38;;
72611;SDS011;60655;52.182;4.474;2023-12-04T00:27:35;18.23;;;7.15;;
72611;SDS011;60655;52.182;4.474;2023-12-04T00:29:35;18.63;;;7.00;;
72611;SDS011;60655;52.182;4.474;2023-12-04T00:31:36;19.08;;;7.03;;
72611;SDS011;60655;52.182;4.474;2023-12-04T00:33:37;17.25;;;6.70;;
72611;SDS011;60655;52.182;4.474;2023-12-04T00:35:38;21.05;;;7.47;;
72611;SDS011;60655;52.182;4.474;2023-12-04T00:37:39;17.73;;;6.85;;
72611;SDS011;60655;52.182;4.474;2023-12-04T00:39:40;16.30;;;6.65;;
72611;SDS011;60655;52.182;4.474;2023-12-04T00:41:41;19.65;;;7.53;;
72611;SDS011;60655;52.182;4.474;2023-12-04T00:43:42;21.00;;;7.70;;
72611;SDS011;60655;52.182;4.474;2023-12-04T00:45:43;18.02;;;6.65;;
72611;SDS011;60655;52.182;4.474;2023-12-04T00:47:44;17.83;;;6.60;;
72611;SDS011;60655;52.182;4.474;2023-12-04T00:49:45;16.25;;;6.40;;
72611;SDS011;60655;52.182;4.474;2023-12-04T00:51:45;16.23;;;6.53;;
72611;SDS011;60655;52.182;4.474;2023-12-04T00:53:46;15.30;;;5.90;;
72611;SDS011;60655;52.182;4.474;2023-12-04T00:55:47;20.80;;;6.63;;
72611;SDS011;60655;52.182;4.474;2023-12-04T00:57:48;18.40;;;7.22;;
72611;SDS011;60655;52.182;4.474;2023-12-04T00:59:49;18.17;;;6.07;;
72611;SDS011;60655;52.182;4.474;2023-12-04T01:01:50;23.05;;;7.70;;
72611;SDS011;60655;52.182;4.474;2023-12-04T01:03:51;20.55;;;7.22;;
72611;SDS011;60655;52.182;4.474;2023-12-04T01:05:52;17.20;;;6.65;;
72611;SDS011;60655;52.182;4.474;2023-12-04T01:07:53;15.75;;;6.30;;
72611;SDS011;60655;52.182;4.474;2023-12-04T01:09:54;18.38;;;6.55;;
72611;SDS011;60655;52.182;4.474;2023-12-04T01:11:55;18.92;;;7.13;;
72611;SDS011;60655;52.182;4.474;2023-12-04T01:13:55;18.60;;;7.00;;
72611;SDS011;60655;52.182;4.474;2023-12-04T01:15:56;19.45;;;6.88;;
72611;SDS011;60655;52.182;4.474;2023-12-04T01:17:57;19.50;;;7.43;;
72611;SDS011;60655;52.182;4.474;2023-12-04T01:20:00;20.88;;;7.40;;
72611;SDS011;60655;52.182;4.474;2023-12-04T01:22:02;15.90;;;7.15;;
72611;SDS011;60655;52.182;4.474;2023-12-04T01:24:03;17.48;;;6.70;;
72611;SDS011;60655;52.182;4.474;2023-12-04T01:26:04;17.85;;;5.90;;
72611;SDS011;60655;52.182;4.474;2023-12-04T01:28:05;17.77;;;6.65;;
72611;SDS011;60655;52.182;4.474;2023-12-04T01:30:06;16.88;;;6.70;;
72611;SDS011;60655;52.182;4.474;2023-12-04T01:32:10;15.27;;;5.57;;
72611;SDS011;60655;52.182;4.474;2023-12-04T01:34:11;18.92;;;6.13;;
72611;SDS011;60655;52.182;4.474;2023-12-04T01:36:12;16.55;;;6.57;;
72611;SDS011;60655;52.182;4.474;2023-12-04T01:40:14;17.90;;;6.25;;
72611;SDS011;60655;52.182;4.474;2023-12-04T01:42:15;21.33;;;7.13;;
72611;SDS011;60655;52.182;4.474;2023-12-04T01:44:16;17.05;;;6.53;;
72611;SDS011;60655;52.182;4.474;2023-12-04T01:46:18;17.35;;;6.40;;
72611;SDS011;60655;52.182;4.474;2023-12-04T01:48:19;17.70;;;6.22;;
72611;SDS011;60655;52.182;4.474;2023-12-04T01:50:20;17.70;;;6.88;;
72611;SDS011;60655;52.182;4.474;2023-12-04T01:52:21;16.27;;;5.63;;
72611;SDS011;60655;52.182;4.474;2023-12-04T01:54:22;20.13;;;7.72;;
72611;SDS011;60655;52.182;4.474;2023-12-04T01:56:23;16.15;;;6.43;;
72611;SDS011;60655;52.182;4.474;2023-12-04T01:58:24;15.98;;;5.93;;
72611;SDS011;60655;52.182;4.474;2023-12-04T02:00:25;17.20;;;6.95;;
72611;SDS011;60655;52.182;4.474;2023-12-04T02:02:27;18.77;;;6.30;;
72611;SDS011;60655;52.182;4.474;2023-12-04T02:04:30;16.67;;;6.47;;
72611;SDS011;60655;52.182;4.474;2023-12-04T02:06:31;17.95;;;6.20;;
72611;SDS011;60655;52.182;4.474;2023-12-04T02:08:32;14.48;;;5.97;;
72611;SDS011;60655;52.182;4.474;2023-12-04T02:10:33;19.25;;;6.63;;
72611;SDS011;60655;52.182;4.474;2023-12-04T02:12:34;18.77;;;6.53;;
72611;SDS011;60655;52.182;4.474;2023-12-04T02:14:35;20.52;;;6.78;;
72611;SDS011;60655;52.182;4.474;2023-12-04T02:16:38;16.70;;;5.28;;
72611;SDS011;60655;52.182;4.474;2023-12-04T02:18:42;12.73;;;4.78;;
72611;SDS011;60655;52.182;4.474;2023-12-04T02:20:43;16.25;;;6.28;;
72611;SDS011;60655;52.182;4.474;2023-12-04T02:22:44;15.48;;;6.18;;
72611;SDS011;60655;52.182;4.474;2023-12-04T02:24:46;13.25;;;5.53;;
72611;SDS011;60655;52.182;4.474;2023-12-04T02:26:50;15.05;;;5.78;;
72611;SDS011;60655;52.182;4.474;2023-12-04T02:28:54;17.02;;;5.85;;
72611;SDS011;60655;52.182;4.474;2023-12-04T02:30:58;15.75;;;5.53;;
72611;SDS011;60655;52.182;4.474;2023-12-04T02:33:03;13.68;;;5.22;;
72611;SDS011;60655;52.182;4.474;2023-12-04T02:35:06;14.65;;;5.22;;
72611;SDS011;60655;52.182;4.474;2023-12-04T02:37:09;14.40;;;5.68;;
72611;SDS011;60655;52.182;4.474;2023-12-04T02:39:12;16.67;;;5.40;;
72611;SDS011;60655;52.182;4.474;2023-12-04T02:41:13;14.25;;;5.75;;
72611;SDS011;60655;52.182;4.474;2023-12-04T02:43:14;12.50;;;5.28;;
72611;SDS011;60655;52.182;4.474;2023-12-04T02:45:15;14.75;;;5.78;;
72611;SDS011;60655;52.182;4.474;2023-12-04T02:47:15;13.95;;;5.43;;
72611;SDS011;60655;52.182;4.474;2023-12-04T02:49:17;14.98;;;6.05;;
72611;SDS011;60655;52.182;4.474;2023-12-04T02:51:18;18.10;;;6.07;;
72611;SDS011;60655;52.182;4.474;2023-12-04T02:53:18;14.95;;;5.28;;
72611;SDS011;60655;52.182;4.474;2023-12-04T02:55:19;15.00;;;5.07;;
72611;SDS011;60655;52.182;4.474;2023-12-04T02:57:20;13.43;;;5.13;;
72611;SDS011;60655;52.182;4.474;2023-12-04T02:59:22;17.77;;;5.82;;
72611;SDS011;60655;52.182;4.474;2023-12-04T03:01:23;14.27;;;5.45;;
72611;SDS011;60655;52.182;4.474;2023-12-04T03:03:24;16.20;;;5.85;;
72611;SDS011;60655;52.182;4.474;2023-12-04T03:05:24;16.33;;;5.90;;
72611;SDS011;60655;52.182;4.474;2023-12-04T03:07:25;18.38;;;6.50;;
72611;SDS011;60655;52.182;4.474;2023-12-04T03:11:27;14.85;;;6.13;;
72611;SDS011;60655;52.182;4.474;2023-12-04T03:13:28;11.45;;;4.93;;
72611;SDS011;60655;52.182;4.474;2023-12-04T03:15:29;15.77;;;6.03;;
72611;SDS011;60655;52.182;4.474;2023-12-04T03:17:30;15.68;;;4.90;;
72611;SDS011;60655;52.182;4.474;2023-12-04T03:19:31;12.88;;;5.38;;
72611;SDS011;60655;52.182;4.474;2023-12-04T03:21:32;14.82;;;6.03;;
72611;SDS011;60655;52.182;4.474;2023-12-04T03:23:33;13.25;;;5.82;;
72611;SDS011;60655;52.182;4.474;2023-12-04T03:25:34;13.65;;;4.97;;
72611;SDS011;60655;52.182;4.474;2023-12-04T03:27:35;14.40;;;5.57;;
72611;SDS011;60655;52.182;4.474;2023-12-04T03:29:36;17.58;;;5.43;;
72611;SDS011;60655;52.182;4.474;2023-12-04T03:31:38;14.20;;;5.43;;
72611;SDS011;60655;52.182;4.474;2023-12-04T03:33:39;16.15;;;5.55;;
72611;SDS011;60655;52.182;4.474;2023-12-04T03:35:40;13.07;;;4.70;;
72611;SDS011;60655;52.182;4.474;2023-12-04T03:37:41;14.32;;;5.43;;
72611;SDS011;60655;52.182;4.474;2023-12-04T03:39:42;11.65;;;4.60;;
72611;SDS011;60655;52.182;4.474;2023-12-04T03:41:42;12.82;;;4.38;;
72611;SDS011;60655;52.182;4.474;2023-12-04T03:43:43;14.30;;;4.82;;
72611;SDS011;60655;52.182;4.474;2023-12-04T03:45:44;14.18;;;5.18;;
72611;SDS011;60655;52.182;4.474;2023-12-04T03:47:45;14.10;;;4.57;;
72611;SDS011;60655;52.182;4.474;2023-12-04T03:49:46;13.35;;;5.03;;
72611;SDS011;60655;52.182;4.474;2023-12-04T03:51:47;16.38;;;5.70;;
72611;SDS011;60655;52.182;4.474;2023-12-04T03:53:48;13.85;;;4.70;;
72611;SDS011;60655;52.182;4.474;2023-12-04T03:55:49;10.93;;;4.50;;
72611;SDS011;60655;52.182;4.474;2023-12-04T03:57:50;15.48;;;5.38;;
72611;SDS011;60655;52.182;4.474;2023-12-04T03:59:51;12.65;;;4.70;;
72611;SDS011;60655;52.182;4.474;2023-12-04T04:01:52;15.50;;;4.68;;
72611;SDS011;60655;52.182;4.474;2023-12-04T04:03:52;14.45;;;4.93;;
72611;SDS011;60655;52.182;4.474;2023-12-04T04:05:53;12.98;;;4.40;;
72611;SDS011;60655;52.182;4.474;2023-12-04T04:07:54;12.57;;;4.70;;
72611;SDS011;60655;52.182;4.474;2023-12-04T04:09:55;10.73;;;4.35;;
72611;SDS011;60655;52.182;4.474;2023-12-04T04:11:56;13.55;;;5.13;;
72611;SDS011;60655;52.182;4.474;2023-12-04T04:13:57;13.38;;;5.03;;
72611;SDS011;60655;52.182;4.474;2023-12-04T04:15:58;12.23;;;4.75;;
72611;SDS011;60655;52.182;4.474;2023-12-04T04:17:59;14.07;;;4.72;;
72611;SDS011;60655;52.182;4.474;2023-12-04T04:20:00;12.57;;;4.82;;
72611;SDS011;60655;52.182;4.474;2023-12-04T04:22:01;13.52;;;5.40;;
72611;SDS011;60655;52.182;4.474;2023-12-04T04:24:01;12.45;;;5.28;;
72611;SDS011;60655;52.182;4.474;2023-12-04T04:26:02;13.75;;;5.38;;
72611;SDS011;60655;52.182;4.474;2023-12-04T04:28:04;12.23;;;4.72;;
72611;SDS011;60655;52.182;4.474;2023-12-04T04:30:05;12.63;;;4.93;;
72611;SDS011;60655;52.182;4.474;2023-12-04T04:32:06;13.35;;;4.78;;
72611;SDS011;60655;52.182;4.474;2023-12-04T04:34:07;13.50;;;5.35;;
72611;SDS011;60655;52.182;4.474;2023-12-04T04:36:11;14.43;;;5.28;;
72611;SDS011;60655;52.182;4.474;2023-12-04T04:38:12;12.82;;;4.47;;
72611;SDS011;60655;52.182;4.474;2023-12-04T04:40:13;12.63;;;4.40;;
72611;SDS011;60655;52.182;4.474;2023-12-04T04:42:14;14.70;;;4.88;;
72611;SDS011;60655;52.182;4.474;2023-12-04T04:46:16;11.90;;;3.65;;
72611;SDS011;60655;52.182;4.474;2023-12-04T04:48:17;15.10;;;5.65;;
72611;SDS011;60655;52.182;4.474;2023-12-04T04:50:17;11.52;;;4.28;;
72611;SDS011;60655;52.182;4.474;2023-12-04T04:52:18;11.00;;;4.35;;
72611;SDS011;60655;52.182;4.474;2023-12-04T04:54:19;14.73;;;5.03;;
72611;SDS011;60655;52.182;4.474;2023-12-04T04:56:20;11.77;;;4.65;;
72611;SDS011;60655;52.182;4.474;2023-12-04T04:58:21;9.80;;;4.15;;
72611;SDS011;60655;52.182;4.474;2023-12-04T05:00:22;11.25;;;4.50;;
72611;SDS011;60655;52.182;4.474;2023-12-04T05:02:23;12.30;;;4.78;;
72611;SDS011;60655;52.182;4.474;2023-12-04T05:04:24;12.43;;;4.10;;
72611;SDS011;60655;52.182;4.474;2023-12-04T05:06:25;11.40;;;4.35;;
72611;SDS011;60655;52.182;4.474;2023-12-04T05:08:26;14.25;;;4.90;;
72611;SDS011;60655;52.182;4.474;2023-12-04T05:10:27;11.93;;;4.57;;
72611;SDS011;60655;52.182;4.474;2023-12-04T05:12:27;12.43;;;4.57;;
72611;SDS011;60655;52.182;4.474;2023-12-04T05:14:28;11.45;;;3.72;;
72611;SDS011;60655;52.182;4.474;2023-12-04T05:16:29;14.10;;;4.63;;
72611;SDS011;60655;52.182;4.474;2023-12-04T05:18:30;13.60;;;4.80;;
72611;SDS011;60655;52.182;4.474;2023-12-04T05:20:31;10.50;;;3.90;;
72611;SDS011;60655;52.182;4.474;2023-12-04T05:22:32;11.68;;;4.30;;
72611;SDS011;60655;52.182;4.474;2023-12-04T05:24:33;12.30;;;4.80;;
72611;SDS011;60655;52.182;4.474;2023-12-04T05:26:34;14.68;;;5.03;;
72611;SDS011;60655;52.182;4.474;2023-12-04T05:28:35;12.68;;;4.82;;
72611;SDS011;60655;52.182;4.474;2023-12-04T05:30:35;11.68;;;3.92;;
72611;SDS011;60655;52.182;4.474;2023-12-04T05:32:36;9.73;;;3.95;;
72611;SDS011;60655;52.182;4.474;2023-12-04T05:34:37;15.25;;;4.95;;
72611;SDS011;60655;52.182;4.474;2023-12-04T05:36:38;12.65;;;5.10;;
72611;SDS011;60655;52.182;4.474;2023-12-04T05:38:39;11.63;;;4.32;;
72611;SDS011;60655;52.182;4.474;2023-12-04T05:40:40;10.20;;;4.00;;
72611;SDS011;60655;52.182;4.474;2023-12-04T05:42:41;11.68;;;3.85;;
72611;SDS011;60655;52.182;4.474;2023-12-04T05:44:42;11.98;;;4.53;;
72611;SDS011;60655;52.182;4.474;2023-12-04T05:46:43;12.73;;;4.57;;
72611;SDS011;60655;52.182;4.474;2023-12-04T05:48:44;10.02;;;3.97;;
72611;SDS011;60655;52.182;4.474;2023-12-04T05:50:45;14.85;;;4.32;;
72611;SDS011;60655;52.182;4.474;2023-12-04T05:52:45;10.68;;;3.88;;
72611;SDS011;60655;52.182;4.474;2023-12-04T05:54:46;13.32;;;4.40;;
72611;SDS011;60655;52.182;4.474;2023-12-04T05:56:47;13.55;;;4.90;;
72611;SDS011;60655;52.182;4.474;2023-12-04T05:58:48;14.40;;;5.50;;
72611;SDS011;60655;52.182;4.474;2023-12-04T06:00:49;13.65;;;4.45;;
72611;SDS011;60655;52.182;4.474;2023-12-04T06:02:50;13.80;;;5.03;;
72611;SDS011;60655;52.182;4.474;2023-12-04T06:04:51;13.18;;;4.75;;
72611;SDS011;60655;52.182;4.474;2023-12-04T06:06:52;11.43;;;4.18;;
72611;SDS011;60655;52.182;4.474;2023-12-04T06:08:53;10.80;;;4.50;;
72611;SDS011;60655;52.182;4.474;2023-12-04T06:10:54;12.20;;;4.82;;
72611;SDS011;60655;52.182;4.474;2023-12-04T06:12:54;12.35;;;4.75;;
72611;SDS011;60655;52.182;4.474;2023-12-04T06:14:55;13.88;;;4.35;;
72611;SDS011;60655;52.182;4.474;2023-12-04T06:16:56;11.35;;;4.25;;
72611;SDS011;60655;52.182;4.474;2023-12-04T06:18:57;12.27;;;4.20;;
72611;SDS011;60655;52.182;4.474;2023-12-04T06:20:58;14.95;;;4.72;;
72611;SDS011;60655;52.182;4.474;2023-12-04T06:22:59;12.25;;;4.82;;
72611;SDS011;60655;52.182;4.474;2023-12-04T06:25:00;10.52;;;4.28;;
72611;SDS011;60655;52.182;4.474;2023-12-04T06:27:01;10.98;;;4.10;;
72611;SDS011;60655;52.182;4.474;2023-12-04T06:29:03;13.88;;;5.50;;
72611;SDS011;60655;52.182;4.474;2023-12-04T06:31:04;12.75;;;4.40;;
72611;SDS011;60655;52.182;4.474;2023-12-04T06:33:05;14.13;;;4.90;;
72611;SDS011;60655;52.182;4.474;2023-12-04T06:35:07;10.65;;;4.47;;
72611;SDS011;60655;52.182;4.474;2023-12-04T06:37:09;11.85;;;4.47;;
72611;SDS011;60655;52.182;4.474;2023-12-04T06:39:11;12.23;;;5.07;;
72611;SDS011;60655;52.182;4.474;2023-12-04T06:41:13;12.07;;;4.38;;
72611;SDS011;60655;52.182;4.474;2023-12-04T06:45:19;12.35;;;3.72;;
72611;SDS011;60655;52.182;4.474;2023-12-04T06:47:22;10.73;;;3.88;;
72611;SDS011;60655;52.182;4.474;2023-12-04T06:49:24;13.40;;;3.80;;
72611;SDS011;60655;52.182;4.474;2023-12-04T06:51:27;11.05;;;4.50;;
72611;SDS011;60655;52.182;4.474;2023-12-04T06:53:28;11.88;;;3.97;;
72611;SDS011;60655;52.182;4.474;2023-12-04T06:55:29;10.38;;;4.28;;
72611;SDS011;60655;52.182;4.474;2023-12-04T06:57:30;12.50;;;3.80;;
72611;SDS011;60655;52.182;4.474;2023-12-04T06:59:31;12.25;;;4.53;;
72611;SDS011;60655;52.182;4.474;2023-12-04T07:01:32;12.13;;;4.30;;
72611;SDS011;60655;52.182;4.474;2023-12-04T07:03:33;13.05;;;4.68;;
72611;SDS011;60655;52.182;4.474;2023-12-04T07:05:34;11.75;;;3.92;;
72611;SDS011;60655;52.182;4.474;2023-12-04T07:07:35;10.75;;;4.05;;
72611;SDS011;60655;52.182;4.474;2023-12-04T07:09:36;17.35;;;4.32;;
72611;SDS011;60655;52.182;4.474;2023-12-04T07:11:36;12.57;;;4.57;;
72611;SDS011;60655;52.182;4.474;2023-12-04T07:13:37;10.48;;;4.45;;
72611;SDS011;60655;52.182;4.474;2023-12-04T07:15:41;11.30;;;4.72;;
72611;SDS011;60655;52.182;4.474;2023-12-04T07:17:42;10.07;;;3.83;;
72611;SDS011;60655;52.182;4.474;2023-12-04T07:19:43;11.07;;;4.40;;
72611;SDS011;60655;52.182;4.474;2023-12-04T07:21:44;10.88;;;4.50;;
72611;SDS011;60655;52.182;4.474;2023-12-04T07:23:44;14.48;;;4.43;;
72611;SDS011;60655;52.182;4.474;2023-12-04T07:25:45;11.38;;;3.70;;
72611;SDS011;60655;52.182;4.474;2023-12-04T07:27:46;12.48;;;4.60;;
72611;SDS011;60655;52.182;4.474;2023-12-04T07:29:47;9.65;;;3.83;;
72611;SDS011;60655;52.182;4.474;2023-12-04T07:31:48;12.77;;;4.15;;
72611;SDS011;60655;52.182;4.474;2023-12-04T07:33:49;11.80;;;4.55;;
72611;SDS011;60655;52.182;4.474;2023-12-04T07:35:50;9.60;;;3.90;;
72611;SDS011;60655;52.182;4.474;2023-12-04T07:37:52;10.85;;;4.47;;
72611;SDS011;60655;52.182;4.474;2023-12-04T07:39:53;10.65;;;4.03;;
72611;SDS011;60655;52.182;4.474;2023-12-04T07:41:54;9.23;;;3.90;;
72611;SDS011;60655;52.182;4.474;2023-12-04T07:43:55;12.00;;;4.50;;
72611;SDS011;60655;52.182;4.474;2023-12-04T07:45:56;11.18;;;4.32;;
72611;SDS011;60655;52.182;4.474;2023-12-04T07:47:58;9.27;;;3.55;;
72611;SDS011;60655;52.182;4.474;2023-12-04T07:49:59;11.82;;;4.20;;
72611;SDS011;60655;52.182;4.474;2023-12-04T07:52:00;11.65;;;4.38;;
72611;SDS011;60655;52.182;4.474;2023-12-04T07:54:01;10.15;;;4.68;;
72611;SDS011;60655;52.182;4.474;2023-12-04T07:56:02;9.55;;;3.85;;
72611;SDS011;60655;52.182;4.474;2023-12-04T07:58:06;15.35;;;4.30;;
72611;SDS011;60655;52.182;4.474;2023-12-04T08:00:07;9.05;;;3.50;;
72611;SDS011;60655;52.182;4.474;2023-12-04T08:02:08;12.20;;;4.15;;
72611;SDS011;60655;52.182;4.474;2023-12-04T08:06:10;9.82;;;4.00;;
72611;SDS011;60655;52.182;4.474;2023-12-04T08:08:11;9.27;;;3.60;;
72611;SDS011;60655;52.182;4.474;2023-12-04T08:10:12;9.30;;;3.47;;
72611;SDS011;60655;52.182;4.474;2023-12-04T08:12:13;10.38;;;3.88;;
72611;SDS011;60655;52.182;4.474;2023-12-04T08:14:14;9.73;;;3.75;;
72611;SDS011;60655;52.182;4.474;2023-12-04T08:16:16;11.57;;;4.60;;
72611;SDS011;60655;52.182;4.474;2023-12-04T08:18:17;11.18;;;3.90;;
72611;SDS011;60655;52.182;4.474;2023-12-04T08:20:18;9.23;;;3.47;;
72611;SDS011;60655;52.182;4.474;2023-12-04T08:22:22;10.07;;;3.45;;
72611;SDS011;60655;52.182;4.474;2023-12-04T08:24:23;9.70;;;4.30;;
72611;SDS011;60655;52.182;4.474;2023-12-04T08:26:25;11.02;;;4.55;;
72611;SDS011;60655;52.182;4.474;2023-12-04T08:28:26;9.63;;;3.92;;
72611;SDS011;60655;52.182;4.474;2023-12-04T08:30:27;10.10;;;3.67;;
72611;SDS011;60655;52.182;4.474;2023-12-04T08:32:28;9.15;;;3.75;;
72611;SDS011;60655;52.182;4.474;2023-12-04T08:34:29;9.82;;;4.05;;
72611;SDS011;60655;52.182;4.474;2023-12-04T08:36:30;10.55;;;4.15;;
72611;SDS011;60655;52.182;4.474;2023-12-04T08:38:31;11.18;;;4.05;;
72611;SDS011;60655;52.182;4.474;2023-12-04T08:40:31;10.75;;;4.30;;
72611;SDS011;60655;52.182;4.474;2023-12-04T08:42:32;11.02;;;4.53;;
72611;SDS011;60655;52.182;4.474;2023-12-04T08:44:34;9.85;;;3.90;;
72611;SDS011;60655;52.182;4.474;2023-12-04T08:46:35;11.18;;;4.50;;
72611;SDS011;60655;52.182;4.474;2023-12-04T08:48:36;11.65;;;4.38;;
72611;SDS011;60655;52.182;4.474;2023-12-04T08:50:37;12.60;;;4.70;;
72611;SDS011;60655;52.182;4.474;2023-12-04T08:52:38;9.73;;;3.95;;
72611;SDS011;60655;52.182;4.474;2023-12-04T08:54:42;13.15;;;4.38;;
72611;SDS011;60655;52.182;4.474;2023-12-04T08:56:43;12.95;;;4.45;;
72611;SDS011;60655;52.182;4.474;2023-12-04T08:58:44;9.18;;;3.92;;
72611;SDS011;60655;52.182;4.474;2023-12-04T09:00:45;9.15;;;3.30;;
72611;SDS011;60655;52.182;4.474;2023-12-04T09:02:47;14.98;;;4.63;;
72611;SDS011;60655;52.182;4.474;2023-12-04T09:04:49;11.15;;;4.57;;
72611;SDS011;60655;52.182;4.474;2023-12-04T09:06:50;9.60;;;3.70;;
72611;SDS011;60655;52.182;4.474;2023-12-04T09:08:51;11.52;;;4.32;;
72611;SDS011;60655;52.182;4.474;2023-12-04T09:10:52;11.68;;;4.20;;
72611;SDS011;60655;52.182;4.474;2023-12-04T09:12:53;11.50;;;4.43;;
72611;SDS011;60655;52.182;4.474;2023-12-04T09:14:55;9.90;;;4.22;;
72611;SDS011;60655;52.182;4.474;2023-12-04T09:16:56;10.90;;;4.15;;
72611;SDS011;60655;52.182;4.474;2023-12-04T09:18:56;10.43;;;3.85;;
72611;SDS011;60655;52.182;4.474;2023-12-04T09:20:57;12.13;;;5.18;;
72611;SDS011;60655;52.182;4.474;2023-12-04T09:22:58;9.40;;;3.75;;
72611;SDS011;60655;52.182;4.474;2023-12-04T09:24:59;11.93;;;4.65;;
72611;SDS011;60655;52.182;4.474;2023-12-04T09:27:00;12.63;;;4.53;;
72611;SDS011;60655;52.182;4.474;2023-12-04T09:29:01;10.77;;;4.22;;
72611;SDS011;60655;52.182;4.474;2023-12-04T09:31:03;9.45;;;3.90;;
72611;SDS011;60655;52.182;4.474;2023-12-04T09:33:04;9.20;;;3.50;;
72611;SDS011;60655;52.182;4.474;2023-12-04T09:35:06;13.30;;;4.68;;
72611;SDS011;60655;52.182;4.474;2023-12-04T09:37:08;9.73;;;4.30;;
72611;SDS011;60655;52.182;4.474;2023-12-04T09:39:08;10.38;;;3.78;;
72611;SDS011;60655;52.182;4.474;2023-12-04T09:41:10;9.90;;;3.67;;
72611;SDS011;60655;52.182;4.474;2023-12-04T09:43:13;10.27;;;4.18;;
72611;SDS011;60655;52.182;4.474;2023-12-04T09:45:14;9.27;;;3.72;;
72611;SDS011;60655;52.182;4.474;2023-12-04T09:47:17;12.60;;;4.80;;
72611;SDS011;60655;52.182;4.474;2023-12-04T09:49:18;12.55;;;3.92;;
72611;SDS011;60655;52.182;4.474;2023-12-04T09:51:20;9.30;;;3.88;;
72611;SDS011;60655;52.182;4.474;2023-12-04T09:53:22;10.98;;;4.57;;
72611;SDS011;60655;52.182;4.474;2023-12-04T09:55:25;10.82;;;3.35;;
72611;SDS011;60655;52.182;4.474;2023-12-04T09:57:26;11.13;;;3.72;;
72611;SDS011;60655;52.182;4.474;2023-12-04T09:59:27;12.15;;;4.00;;
72611;SDS011;60655;52.182;4.474;2023-12-04T10:01:31;9.52;;;3.75;;
72611;SDS011;60655;52.182;4.474;2023-12-04T10:03:33;9.35;;;3.80;;
72611;SDS011;60655;52.182;4.474;2023-12-04T10:05:35;10.43;;;4.10;;
72611;SDS011;60655;52.182;4.474;2023-12-04T10:07:36;11.68;;;3.92;;
72611;SDS011;60655;52.182;4.474;2023-12-04T10:09:38;8.90;;;3.90;;
72611;SDS011;60655;52.182;4.474;2023-12-04T10:11:39;7.28;;;2.92;;
72611;SDS011;60655;52.182;4.474;2023-12-04T10:13:41;10.18;;;3.70;;
72611;SDS011;60655;52.182;4.474;2023-12-04T10:15:49;9.30;;;4.07;;
72611;SDS011;60655;52.182;4.474;2023-12-04T10:17:50;10.25;;;4.07;;
72611;SDS011;60655;52.182;4.474;2023-12-04T10:20:03;9.65;;;3.90;;
72611;SDS011;60655;52.182;4.474;2023-12-04T10:22:12;8.63;;;3.35;;
72611;SDS011;60655;52.182;4.474;2023-12-04T10:26:32;8.60;;;3.50;;
72611;SDS011;60655;52.182;4.474;2023-12-04T10:28:34;8.38;;;3.10;;
72611;SDS011;60655;52.182;4.474;2023-12-04T10:30:35;10.65;;;3.80;;
72611;SDS011;60655;52.182;4.474;2023-12-04T10:32:36;8.52;;;3.67;;
72611;SDS011;60655;52.182;4.474;2023-12-04T10:34:42;9.23;;;3.90;;
72611;SDS011;60655;52.182;4.474;2023-12-04T10:36:44;11.40;;;3.90;;
72611;SDS011;60655;52.182;4.474;2023-12-04T10:38:46;10.23;;;4.10;;
72611;SDS011;60655;52.182;4.474;2023-12-04T10:40:47;8.60;;;3.80;;
72611;SDS011;60655;52.182;4.474;2023-12-04T10:42:48;9.10;;;3.83;;
72611;SDS011;60655;52.182;4.474;2023-12-04T10:44:49;11.35;;;3.60;;
72611;SDS011;60655;52.182;4.474;2023-12-04T10:46:50;8.93;;;4.00;;
72611;SDS011;60655;52.182;4.474;2023-12-04T10:48:51;9.52;;;3.70;;
72611;SDS011;60655;52.182;4.474;2023-12-04T10:50:52;9.93;;;3.65;;
72611;SDS011;60655;52.182;4.474;2023-12-04T10:52:53;9.77;;;4.47;;
72611;SDS011;60655;52.182;4.474;2023-12-04T10:54:56;9.52;;;3.95;;
72611;SDS011;60655;52.182;4.474;2023-12-04T10:57:00;9.63;;;3.92;;
72611;SDS011;60655;52.182;4.474;2023-12-04T10:59:06;12.73;;;4.90;;
72611;SDS011;60655;52.182;4.474;2023-12-04T11:01:16;14.63;;;5.25;;
72611;SDS011;60655;52.182;4.474;2023-12-04T11:03:19;10.95;;;3.92;;
72611;SDS011;60655;52.182;4.474;2023-12-04T11:05:26;10.50;;;4.68;;
72611;SDS011;60655;52.182;4.474;2023-12-04T11:09:28;12.35;;;3.72;;
72611;SDS011;60655;52.182;4.474;2023-12-04T11:11:32;9.20;;;3.38;;
72611;SDS011;60655;52.182;4.474;2023-12-04T11:13:40;9.18;;;4.03;;
72611;SDS011;60655;52.182;4.474;2023-12-04T11:15:42;9.35;;;3.58;;
72611;SDS011;60655;52.182;4.474;2023-12-04T11:17:48;9.30;;;4.22;;
72611;SDS011;60655;52.182;4.474;2023-12-04T11:20:13;9.85;;;3.80;;
72611;SDS011;60655;52.182;4.474;2023-12-04T11:22:18;8.05;;;3.45;;
72611;SDS011;60655;52.182;4.474;2023-12-04T11:24:22;11.25;;;4.50;;
72611;SDS011;60655;52.182;4.474;2023-12-04T11:26:24;8.63;;;3.60;;
72611;SDS011;60655;52.182;4.474;2023-12-04T11:28:26;11.40;;;3.17;;
72611;SDS011;60655;52.182;4.474;2023-12-04T11:30:28;10.20;;;3.97;;
72611;SDS011;60655;52.182;4.474;2023-12-04T11:32:30;9.05;;;3.63;;
72611;SDS011;60655;52.182;4.474;2023-12-04T11:34:31;10.60;;;3.85;;
72611;SDS011;60655;52.182;4.474;2023-12-04T11:36:32;9.10;;;4.05;;
72611;SDS011;60655;52.182;4.474;2023-12-04T11:38:34;8.40;;;3.70;;
72611;SDS011;60655;52.182;4.474;2023-12-04T11:40:37;10.68;;;3.95;;
72611;SDS011;60655;52.182;4.474;2023-12-04T11:42:38;9.88;;;3.78;;
72611;SDS011;60655;52.182;4.474;2023-12-04T11:44:42;7.95;;;3.22;;
72611;SDS011;60655;52.182;4.474;2023-12-04T11:46:55;9.65;;;3.92;;
72611;SDS011;60655;52.182;4.474;2023-12-04T11:49:25;7.68;;;3.25;;
72611;SDS011;60655;52.182;4.474;2023-12-04T11:53:43;8.63;;;3.60;;
72611;SDS011;60655;52.182;4.474;2023-12-04T11:55:44;9.07;;;3.28;;
72611;SDS011;60655;52.182;4.474;2023-12-04T11:57:46;8.10;;;3.35;;
72611;SDS011;60655;52.182;4.474;2023-12-04T11:59:47;10.13;;;3.72;;
72611;SDS011;60655;52.182;4.474;2023-12-04T12:01:55;9.20;;;3.90;;
72611;SDS011;60655;52.182;4.474;2023-12-04T12:03:59;9.00;;;3.90;;
72611;SDS011;60655;52.182;4.474;2023-12-04T12:06:01;9.10;;;3.67;;
72611;SDS011;60655;52.182;4.474;2023-12-04T12:10:03;8.43;;;3.45;;
72611;SDS011;60655;52.182;4.474;2023-12-04T12:12:05;10.15;;;4.28;;
72611;SDS011;60655;52.182;4.474;2023-12-04T12:14:06;13.43;;;5.13;;
72611;SDS011;60655;52.182;4.474;2023-12-04T12:16:07;10.05;;;4.30;;
72611;SDS011;60655;52.182;4.474;2023-12-04T12:20:11;10.88;;;4.00;;
72611;SDS011;60655;52.182;4.474;2023-12-04T12:22:15;10.52;;;3.60;;
72611;SDS011;60655;52.182;4.474;2023-12-04T12:24:15;11.68;;;3.90;;
72611;SDS011;60655;52.182;4.474;2023-12-04T12:26:16;9.55;;;3.88;;